Latest Weather Observations for Dum In Mirrie

IDD60901

Issued at 7:11 pm CST Friday 20 January 2017 (issued every 10 minutes, with the page automatically refreshed every 10 minutes)

About weather observations | Map of Darwin area stations | Latest observations for Darwin area | Other Formats
Station Details ID: 014277 Name: DUM IN MIRRIE AIRSTRIP Lat: -12.63 Lon: 130.37 Height: 3.5 m
Data from the previous 72 hours. | See also: Recent months at Dum In Mirrie
Date/Time
CST
Temp
°C
App
Temp
°C
Dew
Point
°C
Rel
Hum
%
Delta-T
°C
Wind Press
QNH
hPa
Press
MSL
hPa
Rain since
9am
mm
Dir  Spd
km/h
Gust
km/h
Spd
kts
Gust
kts
20/07:00pm 27.9 32.5 24.1 80 2.6 WNW 7 17 4 9 1007.3 1007.3 13.6
20/06:30pm 27.9 32.2 24.3 81 2.5 W 9 19 5 10 1007.0 1007.0 13.6
20/06:00pm 28.0 32.0 24.4 81 2.5 WNW 11 20 6 11 1006.7 1006.7 13.6
20/05:30pm 27.9 32.3 24.5 82 2.4 W 9 17 5 9 1006.5 1006.5 13.6
20/05:00pm 27.5 31.8 24.9 86 1.8 W 11 19 6 10 1006.5 1006.5 13.6
20/04:30pm 27.3 31.0 24.6 85 1.9 W 13 22 7 12 1006.5 1006.5 13.6
20/04:00pm 26.9 30.9 25.1 90 1.3 W 13 24 7 13 1006.6 1006.6 13.4
20/03:30pm 26.6 28.9 25.0 91 1.1 W 22 33 12 18 1006.5 1006.5 13.4
20/03:00pm 26.0 28.3 25.0 94 0.7 W 22 32 12 17 1006.3 1006.3 13.4
20/02:30pm 25.9 28.3 25.2 96 0.5 W 22 37 12 20 1006.9 1006.9 12.8
20/02:00pm 25.9 28.9 25.2 96 0.5 W 19 28 10 15 1008.0 1008.0 11.2
20/01:30pm 25.4 27.9 24.5 95 0.6 W 19 28 10 15 1008.5 1008.5 9.8
20/01:00pm 25.6 29.4 24.7 95 0.6 W 13 24 7 13 1008.7 1008.7 7.8
20/12:30pm 25.6 29.5 24.2 92 1.0 WNW 11 20 6 11 1009.0 1009.0 5.4
20/12:00pm 25.6 28.7 24.2 92 1.0 WNW 15 26 8 14 1009.4 1009.4 4.8
20/11:30am 25.3 29.7 25.0 98 0.2 NW 11 24 6 13 1009.5 1009.5 4.8
20/11:00am 25.4 31.6 25.2 99 0.1 NW 2 9 1 5 1009.5 1009.5 4.2
20/10:30am 24.7 30.8 24.4 98 0.2 CALM 0 0 0 0 1009.8 1009.8 3.6
20/10:00am 24.6 29.9 24.3 98 0.2 NNW 4 9 2 5 1009.5 1009.5 2.6
20/09:30am 24.2 28.7 23.9 98 0.2 NNW 7 11 4 6 1009.6 1009.6 1.2
20/09:00am 24.6 29.4 24.4 99 0.1 NNW 7 15 4 8 1009.7 1009.7 80.2
20/08:30am 25.1 28.3 24.9 99 0.1 W 17 32 9 17 1009.9 1009.9 64.4
20/08:00am 25.5 30.8 25.0 97 0.3 NNE 6 7 3 4 1008.7 1008.7 26.6
20/07:30am 25.4 30.5 24.7 96 0.5 NE 6 9 3 5 1008.4 1008.4 25.4
20/07:00am 25.4 31.0 24.9 97 0.3 NE 4 7 2 4 1007.9 1007.9 25.4
20/06:30am 25.4 31.8 24.9 97 0.3 CALM 0 0 0 0 1007.7 1007.7 25.4
20/06:00am 25.4 31.7 24.7 96 0.5 CALM 0 0 0 0 1007.6 1007.6 25.4
20/05:30am 25.7 32.2 25.0 96 0.5 CALM 0 0 0 0 1007.0 1007.0 25.4
20/05:00am 25.7 32.0 24.7 94 0.7 CALM 0 2 0 1 1006.9 1006.9 25.2
20/04:30am 25.6 30.4 24.2 92 1.0 W 6 11 3 6 1006.7 1006.7 24.8
20/04:00am 26.1 31.4 25.2 95 0.6 WSW 7 15 4 8 1007.0 1007.0 24.0
20/03:30am 26.2 31.7 25.3 95 0.6 W 6 9 3 5 1007.3 1007.3 23.0
20/03:00am 26.4 32.0 25.4 94 0.7 WSW 6 13 3 7 1007.5 1007.5 21.4
20/02:30am 26.5 30.9 25.1 92 1.0 W 11 17 6 9 1007.4 1007.4 20.2
20/02:00am 27.0 32.6 25.4 91 1.1 WNW 6 11 3 6 1007.5 1007.5 19.0
20/01:30am 26.9 32.4 25.3 91 1.1 NW 6 11 3 6 1007.7 1007.7 17.8
20/01:00am 27.4 32.1 25.0 87 1.7 NNW 9 15 5 8 1007.8 1007.8 15.8
20/12:30am 26.9 31.8 24.4 86 1.7 N 6 11 3 6 1007.7 1007.7 15.4
20/12:00am 28.1 32.4 24.3 80 2.6 NNW 9 13 5 7 1007.9 1007.9 15.0
 
Date/Time
CST
Temp
°C
App
Temp
°C
Dew
Point
°C
Rel
Hum
%
Delta-T
°C
Wind Press
QNH
hPa
Press
MSL
hPa
Rain since
9am
mm
Dir  Spd
km/h
Gust
km/h
Spd
kts
Gust
kts
19/11:30pm 28.4 33.4 24.8 81 2.5 NNW 7 17 4 9 1008.4 1008.4 14.8
19/11:00pm 28.3 33.4 24.7 81 2.5 NNW 6 9 3 5 1008.5 1008.5 14.8
19/10:30pm 28.2 33.3 24.6 81 2.5 NNW 6 11 3 6 1008.5 1008.5 14.8
19/10:00pm 28.3 33.7 24.5 80 2.6 NNW 4 7 2 4 1008.3 1008.3 14.8
19/09:30pm 28.3 33.1 24.1 78 2.9 NNW 6 9 3 5 1008.1 1008.1 14.8
19/09:00pm 28.1 33.0 24.3 80 2.6 NW 6 9 3 5 1007.9 1007.9 14.8
19/08:30pm 28.0 33.2 24.2 80 2.6 NNW 4 7 2 4 1007.7 1007.7 14.8
19/08:00pm 28.1 33.4 24.3 80 2.6 NW 4 9 2 5 1007.8 1007.8 14.8
19/07:30pm 28.3 33.2 24.3 79 2.8 WNW 6 11 3 6 1007.5 1007.5 14.8
19/07:00pm 28.3 33.1 24.5 80 2.6 WNW 7 15 4 8 1007.0 1007.0 14.8
19/06:30pm 28.2 33.1 24.6 81 2.5 WNW 7 15 4 8 1006.5 1006.5 14.8
19/06:00pm 28.0 32.7 25.0 84 2.1 WNW 9 15 5 8 1006.4 1006.4 14.8
19/05:30pm 27.0 32.1 25.0 89 1.4 WNW 7 15 4 8 1006.5 1006.5 14.8
19/05:00pm 25.7 31.2 24.7 94 0.7 N 4 6 2 3 1006.4 1006.4 14.8
19/04:30pm 25.4 30.4 24.5 95 0.6 NW 6 17 3 9 1006.9 1006.9 14.6
19/04:00pm 29.5 33.6 24.6 75 3.4 WNW 11 19 6 10 1006.8 1006.8 0.0
19/03:30pm 29.9 34.5 24.8 74 3.6 WNW 9 17 5 9 1007.3 1007.3 0.0
19/03:00pm 30.6 35.2 24.7 71 4.1 W 9 17 5 9 1007.7 1007.7 0.0
19/02:30pm 29.6 34.7 24.7 75 3.4 W 6 13 3 7 1008.0 1008.0 0.0
19/02:00pm 29.8 34.2 24.4 73 3.8 W 9 15 5 8 1008.3 1008.3 0.0
19/01:30pm 30.5 35.3 25.1 73 3.8 W 9 19 5 10 1008.8 1008.8 0.0
19/01:00pm 29.8 33.6 24.0 71 4.0 WSW 11 19 6 10 1009.1 1009.1 0.0
19/12:30pm 29.9 34.3 23.8 70 4.2 WSW 7 13 4 7 1009.3 1009.3 0.0
19/12:00pm 29.6 34.3 23.3 69 4.3 WSW 4 9 2 5 1009.5 1009.5 0.0
19/11:30am 30.1 33.9 22.8 65 5.0 WSW 7 13 4 7 1009.7 1009.7 0.0
19/11:00am 29.9 33.5 23.1 67 4.7 WSW 9 17 5 9 1009.8 1009.8 0.0
19/10:30am 28.3 32.0 23.9 77 3.0 W 11 20 6 11 1009.9 1009.9 0.0
19/10:00am 28.0 32.9 24.6 82 2.4 W 7 15 4 8 1010.0 1010.0 0.0
19/09:30am 27.6 32.0 24.4 83 2.2 W 9 20 5 11 1010.1 1010.1 0.0
19/09:00am 27.0 31.3 24.3 85 1.9 WNW 9 17 5 9 1009.7 1009.7 40.2
19/08:30am 26.6 31.1 23.9 85 1.9 WNW 7 17 4 9 1009.5 1009.5 40.2
19/08:00am 26.1 30.2 24.0 88 1.4 WNW 9 17 5 9 1009.2 1009.2 40.2
19/07:30am 25.9 29.3 24.1 90 1.2 WNW 13 22 7 12 1009.2 1009.2 40.0
19/07:00am 25.6 28.7 24.2 92 1.0 W 15 30 8 16 1009.3 1009.3 39.8
19/06:30am 25.4 28.1 24.2 93 0.8 WNW 17 28 9 15 1009.3 1009.3 39.2
19/06:00am 25.0 27.8 23.6 92 1.0 NW 15 28 8 15 1009.4 1009.4 38.0
19/05:30am 25.1 29.6 24.6 97 0.3 WNW 9 15 5 8 1009.3 1009.3 36.2
19/05:00am 24.8 28.7 24.3 97 0.3 WNW 11 20 6 11 1009.3 1009.3 34.8
19/04:30am 24.6 27.8 24.3 98 0.2 W 15 28 8 15 1009.4 1009.4 33.6
19/04:00am 24.8 30.6 24.5 98 0.2 N 2 4 1 2 1009.4 1009.4 22.6
19/03:30am 24.3 30.1 24.0 98 0.2 CALM 0 0 0 0 1009.4 1009.4 22.6
19/03:00am 24.1 28.2 22.9 93 0.8 WNW 6 17 3 9 1009.7 1009.7 21.2
19/02:30am 25.7 29.3 24.3 92 1.0 NNW 13 22 7 12 1009.8 1009.8 10.0
19/02:00am 26.9 33.3 24.9 89 1.4 CALM 0 0 0 0 1009.8 1009.8 6.6
19/01:30am 27.7 34.0 24.7 84 2.1 CALM 0 4 0 2 1010.0 1010.0 6.6
19/01:00am 27.6 33.4 24.6 84 2.1 SW 2 6 1 3 1010.3 1010.3 6.6
19/12:30am 27.5 32.4 24.4 83 2.2 WSW 6 9 3 5 1010.8 1010.8 6.6
19/12:00am 27.3 32.9 24.2 83 2.1 SW 2 6 1 3 1011.0 1011.0 6.6
 
Date/Time
CST
Temp
°C
App
Temp
°C
Dew
Point
°C
Rel
Hum
%
Delta-T
°C
Wind Press
QNH
hPa
Press
MSL
hPa
Rain since
9am
mm
Dir  Spd
km/h
Gust
km/h
Spd
kts
Gust
kts
18/11:30pm 27.4 32.4 23.8 81 2.5 WSW 4 9 2 5 1011.0 1011.0 6.6
18/11:00pm 27.5 31.5 24.4 83 2.1 WSW 11 19 6 10 1011.1 1011.1 6.6
18/10:30pm 27.4 31.8 24.5 84 2.0 W 9 19 5 10 1011.0 1011.0 6.6
18/10:00pm 27.3 30.3 24.0 82 2.3 W 15 22 8 12 1010.6 1010.6 6.6
18/09:30pm 26.8 29.8 24.6 88 1.5 WSW 17 28 9 15 1010.4 1010.4 6.6
18/09:00pm 26.3 29.0 24.2 88 1.4 WSW 17 32 9 17 1010.4 1010.4 6.6
18/08:30pm 27.5 31.8 24.9 86 1.8 W 11 19 6 10 1010.3 1010.3 6.2
18/08:00pm 27.7 31.4 23.9 80 2.6 W 11 19 6 10 1010.1 1010.1 5.8
18/07:30pm 27.6 32.1 24.0 81 2.5 WNW 7 17 4 9 1010.1 1010.1 5.8
18/07:00pm 27.3 31.3 23.7 81 2.5 WNW 9 19 5 10 1009.6 1009.6 5.8
18/06:30pm 26.7 30.2 23.6 83 2.1 WNW 11 20 6 11 1008.7 1008.7 5.8
18/06:00pm 26.0 30.5 24.6 92 1.0 WNW 9 19 5 10 1008.2 1008.2 5.8
18/05:30pm 26.1 30.0 24.9 93 0.8 NNW 13 26 7 14 1007.9 1007.9 5.4
18/05:00pm 29.1 33.1 25.1 79 2.8 NW 13 32 7 17 1007.4 1007.4 0.6
18/04:30pm 29.7 33.9 24.8 75 3.4 NW 11 19 6 10 1007.5 1007.5 0.6
18/04:00pm 30.1 34.3 24.7 73 3.8 NW 11 20 6 11 1007.6 1007.6 0.6
18/03:30pm 28.9 34.5 25.5 82 2.4 NNW 6 13 3 7 1007.5 1007.5 0.6
18/03:00pm 30.5 36.0 25.3 74 3.7 W 6 13 3 7 1007.3 1007.3 0.4
18/02:30pm 29.6 35.7 25.6 79 2.8 W 4 7 2 4 1007.7 1007.7 0.4
18/02:00pm 28.0 31.9 24.8 83 2.2 W 13 19 7 10 1008.3 1008.3 0.2
18/01:30pm 31.0 34.7 24.6 68 4.5 WNW 13 28 7 15 1008.1 1008.1 0.0
18/01:00pm 31.8 36.0 24.7 66 5.0 WNW 11 17 6 9 1008.5 1008.5 0.0
18/12:30pm 31.9 36.5 24.7 65 5.1 NW 9 19 5 10 1008.7 1008.7 0.0
18/12:00pm 32.1 36.7 24.7 65 5.2 NNW 9 17 5 9 1009.3 1009.3 0.0
18/11:30am 32.3 37.1 25.1 65 5.1 NW 9 15 5 8 1009.4 1009.4 0.0
18/11:00am 31.8 36.4 24.7 66 5.0 NNW 9 19 5 10 1009.6 1009.6 0.0
18/10:30am 31.3 35.7 24.4 66 4.8 NNW 9 15 5 8 1009.9 1009.9 0.0
18/10:00am 31.3 36.4 24.9 69 4.5 NNW 7 13 4 7 1010.0 1010.0 0.0
18/09:30am 30.3 34.9 24.7 72 3.9 NNW 9 15 5 8 1010.2 1010.2 0.0
18/09:00am 30.6 35.7 24.7 71 4.1 NW 6 11 3 6 1010.1 1010.1 0.4
18/08:30am 30.6 36.0 25.4 74 3.7 NW 7 11 4 6 1010.0 1010.0 0.4
18/08:00am 29.9 35.5 25.4 77 3.2 NW 6 9 3 5 1009.9 1009.9 0.4
18/07:30am 29.1 34.6 25.3 80 2.7 WNW 6 9 3 5 1009.7 1009.7 0.4
18/07:00am 28.4 33.7 25.0 82 2.4 NW 6 9 3 5 1009.3 1009.3 0.4
18/06:30am 28.4 33.4 24.8 81 2.5 NW 7 13 4 7 1008.9 1008.9 0.4
18/06:00am 28.4 33.6 24.8 81 2.5 NW 6 13 3 7 1008.4 1008.4 0.4
18/05:30am 28.3 33.2 24.7 81 2.5 WNW 7 15 4 8 1007.8 1007.8 0.4
18/05:00am 28.4 32.9 24.6 80 2.6 WNW 9 17 5 9 1007.6 1007.6 0.4
18/04:30am 28.4 33.0 24.8 81 2.5 WNW 9 15 5 8 1007.5 1007.5 0.4
18/04:00am 28.4 32.2 24.0 77 3.0 WNW 11 17 6 9 1007.4 1007.4 0.4
18/03:30am 28.4 32.7 24.2 78 2.9 NW 9 19 5 10 1007.5 1007.5 0.4
18/03:00am 28.7 33.1 24.5 78 2.9 NW 9 17 5 9 1007.7 1007.7 0.4
18/02:30am 28.5 32.9 24.5 79 2.8 NW 9 15 5 8 1007.6 1007.6 0.4
18/02:00am 28.4 33.4 24.8 81 2.5 NW 7 17 4 9 1008.0 1008.0 0.4
18/01:30am 28.1 33.3 25.1 84 2.1 NW 7 13 4 7 1008.3 1008.3 0.4
18/01:00am 28.0 32.6 24.2 80 2.6 NNW 7 13 4 7 1008.7 1008.7 0.4
18/12:30am 28.0 31.8 23.4 76 3.2 NNW 9 17 5 9 1009.2 1009.2 0.4
18/12:00am 28.4 32.0 24.4 79 2.8 NNW 13 22 7 12 1009.2 1009.2 0.4
 
Date/Time
CST
Temp
°C
App
Temp
°C
Dew
Point
°C
Rel
Hum
%
Delta-T
°C
Wind Press
QNH
hPa
Press
MSL
hPa
Rain since
9am
mm
Dir  Spd
km/h
Gust
km/h
Spd
kts
Gust
kts
17/11:30pm 28.1 33.2 25.5 86 1.8 NW 9 15 5 8 1009.6 1009.6 0.4
17/11:00pm 27.2 29.4 23.2 79 2.7 N 17 26 9 14 1009.7 1009.7 0.4
17/10:30pm 29.2 34.1 25.8 82 2.4 NW 11 20 6 11 1009.5 1009.5 0.0
17/10:00pm 28.9 34.5 25.5 82 2.4 NW 6 13 3 7 1009.3 1009.3 0.0
17/09:30pm 28.8 34.0 24.8 79 2.8 NW 6 11 3 6 1009.3 1009.3 0.0
17/09:00pm 29.0 34.0 24.8 78 2.9 NW 7 13 4 7 1009.1 1009.1 0.0
17/08:30pm 28.8 33.7 25.2 81 2.5 NW 9 19 5 10 1008.8 1008.8 0.0
17/08:00pm 28.9 32.6 24.5 77 3.1 WNW 13 32 7 17 1008.4 1008.4 0.0
17/07:30pm 29.8 33.9 24.0 71 4.0 NW 9 15 5 8 1008.0 1008.0 0.0

Latest Capital City Observations: Canberra | Sydney | Melbourne | Brisbane | Adelaide | Perth | Hobart | Darwin

Other Formats:

Comma delimited format used in spreadsheet applications
http://www.bom.gov.au/fwo/IDD60901/IDD60901.94116.axf

JavaScript Object Notation format (JSON) in row-major order
http://www.bom.gov.au/fwo/IDD60901/IDD60901.94116.json